createdAt,value
2024-03-12T08:20:03.354Z,2.64
2024-03-12T08:25:02.886Z,2.63
2024-03-12T08:30:02.434Z,2.62
2024-03-12T08:35:02.960Z,2.61
2024-03-12T08:40:02.501Z,2.62
2024-03-12T08:45:03.317Z,2.66
2024-03-12T08:50:02.824Z,2.65
2024-03-12T08:55:03.398Z,2.63
2024-03-12T09:00:03.111Z,2.66
2024-03-12T09:05:02.676Z,2.66
2024-03-12T09:10:03.393Z,2.66
2024-03-12T09:15:02.962Z,2.67
2024-03-12T09:20:02.496Z,2.67
2024-03-12T09:25:03.024Z,2.7
2024-03-12T09:30:02.653Z,2.67
2024-03-12T09:35:03.197Z,2.63
2024-03-12T09:40:03.370Z,2.62
2024-03-12T09:45:02.978Z,2.58
2024-03-12T09:50:04.932Z,2.55
2024-03-12T09:55:02.823Z,2.56
2024-03-12T10:00:02.337Z,2.57
2024-03-12T10:05:03.017Z,2.57
2024-03-12T10:10:02.628Z,2.57
2024-03-12T10:15:03.407Z,2.57
2024-03-12T10:20:04.542Z,2.62
2024-03-12T10:25:02.635Z,2.66
2024-03-12T10:30:03.184Z,2.68
2024-03-12T10:35:02.694Z,2.73
2024-03-12T10:40:03.327Z,2.71
2024-03-12T10:45:02.784Z,2.65
2024-03-12T10:50:03.821Z,2.58
2024-03-12T10:55:09.750Z,2.59
2024-03-12T11:00:03.300Z,2.63
2024-03-12T11:05:04.124Z,2.7
2024-03-12T11:10:02.768Z,2.77
2024-03-12T11:15:05.698Z,2.8
2024-03-12T11:20:03.930Z,2.8
2024-03-12T11:25:03.641Z,2.76
2024-03-12T11:30:03.815Z,2.74
2024-03-12T11:35:04.003Z,2.77
2024-03-12T11:40:03.831Z,2.77
2024-03-12T11:45:04.281Z,2.73
2024-03-12T11:50:05.111Z,2.69
2024-03-12T11:55:04.379Z,2.69
2024-03-12T12:00:04.412Z,2.73
2024-03-12T12:05:02.969Z,2.79
2024-03-12T12:10:04.194Z,2.86
2024-03-12T12:15:03.681Z,2.85
2024-03-12T12:20:03.408Z,2.84
2024-03-12T12:25:03.071Z,2.79
2024-03-12T12:30:04.349Z,2.8
2024-03-12T12:35:03.287Z,2.83
2024-03-12T12:40:04.427Z,2.86
2024-03-12T12:45:02.951Z,2.84
2024-03-12T12:50:02.411Z,2.8
2024-03-12T12:55:02.935Z,2.77
2024-03-12T13:00:02.446Z,2.69
2024-03-12T13:05:02.952Z,2.66
2024-03-12T13:10:02.439Z,2.67
2024-03-12T13:15:03.405Z,2.7
2024-03-12T13:20:02.941Z,2.72
2024-03-12T13:25:02.441Z,2.72
2024-03-12T13:30:03.450Z,2.67
2024-03-12T13:35:03.199Z,2.69
2024-03-12T13:40:02.712Z,2.68
2024-03-12T13:45:03.413Z,2.67
2024-03-12T13:50:03.092Z,2.66
2024-03-12T13:55:02.621Z,2.66
2024-03-12T14:00:02.726Z,2.64
2024-03-12T14:05:05.648Z,2.66
2024-03-12T14:10:02.574Z,2.64
2024-03-12T14:15:03.290Z,2.61
2024-03-12T14:20:02.866Z,2.57
2024-03-12T14:25:02.501Z,2.55
2024-03-12T14:30:03.165Z,2.55
2024-03-12T14:35:02.759Z,2.55
2024-03-12T14:40:03.446Z,2.45
2024-03-12T14:45:03.055Z,2.41
2024-03-12T14:50:02.572Z,2.37
2024-03-12T14:55:03.135Z,2.32
2024-03-12T15:00:05.567Z,2.34
2024-03-12T15:05:02.390Z,2.34
2024-03-12T15:10:03.100Z,2.3
2024-03-12T15:15:02.712Z,2.3
2024-03-12T15:20:03.279Z,2.32
2024-03-12T15:25:02.872Z,2.35
2024-03-12T15:30:02.659Z,2.37
2024-03-12T15:35:03.324Z,2.39
2024-03-12T15:40:02.933Z,2.41
2024-03-12T15:45:02.477Z,2.44
2024-03-12T15:50:03.005Z,2.46
2024-03-12T15:55:02.601Z,2.46
2024-03-12T16:00:03.196Z,2.48
2024-03-12T16:05:02.751Z,2.45
2024-03-12T16:10:03.655Z,2.48
2024-03-12T16:15:03.357Z,2.5
2024-03-12T16:20:03.156Z,2.52
2024-03-12T16:25:02.732Z,2.52
2024-03-12T16:30:03.260Z,2.52
2024-03-12T16:35:02.956Z,2.52
2024-03-12T16:40:02.681Z,2.51
2024-03-12T16:45:03.223Z,2.52
2024-03-12T16:50:02.766Z,2.53
2024-03-12T16:55:03.331Z,2.53
2024-03-12T17:00:02.823Z,2.53
2024-03-12T17:05:03.350Z,2.55
2024-03-12T17:10:03.021Z,2.55
2024-03-12T17:15:02.709Z,2.55
2024-03-12T17:20:03.323Z,2.53
2024-03-12T17:25:03.048Z,2.52
2024-03-12T17:30:03.230Z,2.48
2024-03-12T17:35:02.830Z,2.41
2024-03-12T17:40:02.402Z,2.37
2024-03-12T17:45:02.960Z,2.33
2024-03-12T17:50:02.419Z,2.3
2024-03-12T17:55:02.990Z,2.27
2024-03-12T18:00:04.586Z,2.24
2024-03-12T18:05:03.378Z,2.24
2024-03-12T18:10:03.082Z,2.27
2024-03-12T18:15:02.638Z,2.27
2024-03-12T18:20:03.290Z,2.29
2024-03-12T18:25:02.974Z,2.3
2024-03-12T18:30:02.478Z,2.32
2024-03-12T18:35:03.014Z,2.34
2024-03-12T18:40:03.747Z,2.35
2024-03-12T18:45:04.082Z,2.36
2024-03-12T18:50:02.788Z,2.37
2024-03-12T18:55:03.535Z,2.35
2024-03-12T19:00:04.301Z,2.31
2024-03-12T19:05:02.824Z,2.26
2024-03-12T19:10:03.340Z,2.2
2024-03-12T19:15:02.905Z,2.14
2024-03-12T19:20:02.512Z,2.07
2024-03-12T19:25:03.060Z,2.03
2024-03-12T19:30:02.554Z,1.96
2024-03-12T19:35:03.081Z,1.92
2024-03-12T19:40:02.850Z,1.88
2024-03-12T19:45:03.492Z,1.82
2024-03-12T19:50:03.295Z,1.77
2024-03-12T19:55:03.546Z,1.74
2024-03-12T20:00:03.780Z,1.72
2024-03-12T20:05:04.084Z,1.67
2024-03-12T20:10:02.815Z,1.64
2024-03-12T20:15:03.343Z,1.61
2024-03-12T20:20:02.808Z,1.59
2024-03-12T20:25:03.360Z,1.59
2024-03-12T20:30:02.813Z,1.61
2024-03-12T20:35:03.419Z,1.61
2024-03-12T20:40:03.041Z,1.64
2024-03-12T20:45:02.681Z,1.65
2024-03-12T20:50:03.206Z,1.65
2024-03-12T20:55:02.793Z,1.66
2024-03-12T21:00:03.301Z,1.68
2024-03-12T21:05:02.832Z,1.69
2024-03-12T21:10:03.432Z,1.71
2024-03-12T21:15:03.009Z,1.71
2024-03-12T21:20:03.151Z,1.67
2024-03-12T21:25:02.724Z,1.63
2024-03-12T21:30:03.340Z,1.59
2024-03-12T21:35:02.783Z,1.54
2024-03-12T21:40:03.342Z,1.52
2024-03-12T21:45:02.946Z,1.5
2024-03-12T21:50:02.375Z,1.46
2024-03-12T21:55:02.958Z,1.44
2024-03-12T22:00:02.393Z,1.41
2024-03-12T22:05:02.951Z,1.38
2024-03-12T22:10:02.566Z,1.37
2024-03-12T22:15:03.179Z,1.36
2024-03-12T22:20:03.203Z,1.32
2024-03-12T22:25:02.785Z,1.3
2024-03-12T22:30:03.286Z,1.26
2024-03-12T22:35:02.884Z,1.22
2024-03-12T22:40:02.558Z,1.2
2024-03-12T22:45:03.406Z,1.19
2024-03-12T22:50:03.266Z,1.18
2024-03-12T22:55:03.009Z,1.15
2024-03-12T23:00:02.707Z,1.15
2024-03-12T23:05:03.986Z,1.15
2024-03-12T23:10:02.648Z,1.1
2024-03-12T23:15:03.323Z,1.05
2024-03-12T23:20:03.318Z,1.06
2024-03-12T23:25:03.050Z,1.04
2024-03-12T23:30:03.086Z,1.04
2024-03-12T23:35:02.843Z,1.05
2024-03-12T23:40:02.613Z,1.04
2024-03-12T23:45:03.252Z,1.04
2024-03-12T23:50:02.980Z,0.97
2024-03-12T23:55:02.709Z,0.93
